createdAt,value
2023-03-15T00:00:29.371Z,987.50
2023-03-15T00:01:29.374Z,987.59
2023-03-15T00:02:29.421Z,987.59
2023-03-15T00:03:29.340Z,987.55
2023-03-15T00:04:29.339Z,987.53
2023-03-15T00:05:29.358Z,987.50
2023-03-15T00:06:29.493Z,987.51
2023-03-15T00:07:29.372Z,987.51
2023-03-15T00:08:29.309Z,987.53
2023-03-15T00:09:29.267Z,987.54
2023-03-15T00:10:29.293Z,987.51
2023-03-15T00:11:29.323Z,987.50
2023-03-15T00:12:29.285Z,987.49
2023-03-15T00:13:29.299Z,987.43
2023-03-15T00:14:29.230Z,987.46
2023-03-15T00:15:29.266Z,987.42
2023-03-15T00:16:29.243Z,987.45
2023-03-15T00:17:29.204Z,987.40
2023-03-15T00:18:29.208Z,987.46
2023-03-15T00:19:29.199Z,987.49
2023-03-15T00:20:29.187Z,987.50
2023-03-15T00:21:29.210Z,987.51
2023-03-15T00:22:29.180Z,987.57
2023-03-15T00:23:29.181Z,987.56
2023-03-15T00:24:29.165Z,987.58
2023-03-15T00:25:29.168Z,987.58
2023-03-15T00:26:29.189Z,987.59
2023-03-15T00:27:29.137Z,987.61
2023-03-15T00:28:29.139Z,987.61
2023-03-15T00:29:29.136Z,987.65
2023-03-15T00:30:29.130Z,987.64
2023-03-15T00:31:29.264Z,987.66
2023-03-15T00:32:29.136Z,987.58
2023-03-15T00:33:29.113Z,987.71
2023-03-15T00:34:29.107Z,987.73
2023-03-15T00:35:29.097Z,987.72
2023-03-15T00:36:29.113Z,987.77
2023-03-15T00:37:29.107Z,987.69
2023-03-15T00:38:29.083Z,987.72
2023-03-15T00:39:29.078Z,987.76
2023-03-15T00:40:29.071Z,987.79
2023-03-15T00:41:29.062Z,987.74
2023-03-15T00:42:29.086Z,987.77
2023-03-15T00:43:29.042Z,987.77
2023-03-15T00:44:29.094Z,987.73
2023-03-15T00:45:29.867Z,987.82
2023-03-15T00:46:29.106Z,987.81
2023-03-15T00:47:29.039Z,987.77
2023-03-15T00:48:29.021Z,987.84
2023-03-15T00:49:29.012Z,987.84
2023-03-15T00:50:29.003Z,987.85
2023-03-15T00:51:28.996Z,987.81
2023-03-15T00:52:29.028Z,987.81
2023-03-15T00:53:28.982Z,987.85
2023-03-15T00:54:28.983Z,987.84
2023-03-15T00:55:28.976Z,987.85
2023-03-15T00:56:28.977Z,987.84
2023-03-15T00:57:28.985Z,987.79
2023-03-15T00:58:28.954Z,987.82
2023-03-15T00:59:28.946Z,987.83
2023-03-15T01:00:28.945Z,987.89
2023-03-15T01:01:29.121Z,987.93
2023-03-15T01:02:29.950Z,988.03
2023-03-15T01:03:28.924Z,987.91
2023-03-15T01:04:28.916Z,987.97
2023-03-15T01:05:28.917Z,987.88
2023-03-15T01:06:28.899Z,987.93
2023-03-15T01:07:28.927Z,987.89
2023-03-15T01:08:28.888Z,987.93
2023-03-15T01:09:28.883Z,987.92
2023-03-15T01:10:28.876Z,987.95
2023-03-15T01:11:28.872Z,987.94
2023-03-15T01:12:28.877Z,987.95
2023-03-15T01:13:28.850Z,987.93
2023-03-15T01:14:28.861Z,987.98
2023-03-15T01:15:28.842Z,987.97
2023-03-15T01:16:28.919Z,987.92
2023-03-15T01:17:28.854Z,987.95
2023-03-15T01:18:28.822Z,987.89
2023-03-15T01:19:28.812Z,987.99
2023-03-15T01:20:28.834Z,987.96
2023-03-15T01:21:28.800Z,987.95
2023-03-15T01:22:28.811Z,987.97
2023-03-15T01:23:28.790Z,987.97
2023-03-15T01:24:28.800Z,987.94
2023-03-15T01:25:28.772Z,987.97
2023-03-15T01:26:28.771Z,988.03
2023-03-15T01:27:28.776Z,987.98
2023-03-15T01:28:28.760Z,987.96
2023-03-15T01:29:28.749Z,988.00
2023-03-15T01:30:28.741Z,988.00
2023-03-15T01:31:28.783Z,987.99
2023-03-15T01:32:28.792Z,987.97
2023-03-15T01:33:28.715Z,987.98
2023-03-15T01:34:28.723Z,987.99
2023-03-15T01:35:28.710Z,988.01
2023-03-15T01:36:28.702Z,988.02
2023-03-15T01:37:28.772Z,988.10
2023-03-15T01:38:28.744Z,988.09
2023-03-15T01:39:28.712Z,988.13
2023-03-15T01:40:29.400Z,988.13
2023-03-15T01:41:28.668Z,988.21
2023-03-15T01:42:28.676Z,988.13
2023-03-15T01:43:28.661Z,988.09
2023-03-15T01:44:28.670Z,988.09
2023-03-15T01:45:28.642Z,988.08
2023-03-15T01:46:28.656Z,988.05
2023-03-15T01:47:28.665Z,987.99
2023-03-15T01:48:28.611Z,988.06
2023-03-15T01:49:28.615Z,988.03
2023-03-15T01:50:28.664Z,988.06
2023-03-15T01:51:28.602Z,988.10
2023-03-15T01:52:28.612Z,988.09
2023-03-15T01:53:28.581Z,988.10
2023-03-15T01:54:28.608Z,988.18
2023-03-15T01:55:28.570Z,988.12
2023-03-15T01:56:28.560Z,988.14
2023-03-15T01:57:28.581Z,988.07
2023-03-15T01:58:28.590Z,988.13
2023-03-15T01:59:28.587Z,988.14
2023-03-15T02:00:28.546Z,988.12
2023-03-15T02:01:28.533Z,988.16
2023-03-15T02:02:28.619Z,988.26
2023-03-15T02:03:28.531Z,988.27
2023-03-15T02:04:28.531Z,988.19
2023-03-15T02:05:28.511Z,988.19
2023-03-15T02:06:28.511Z,988.20
2023-03-15T02:07:28.511Z,988.19
2023-03-15T02:08:28.499Z,988.22
2023-03-15T02:09:28.488Z,988.18
2023-03-15T02:10:28.490Z,988.22
2023-03-15T02:11:28.484Z,988.18
2023-03-15T02:12:28.490Z,988.23
2023-03-15T02:13:28.462Z,988.27
2023-03-15T02:14:28.460Z,988.24
2023-03-15T02:15:28.452Z,988.23
2023-03-15T02:16:28.459Z,988.22
2023-03-15T02:17:28.470Z,988.18
2023-03-15T02:18:28.426Z,988.23
2023-03-15T02:19:28.432Z,988.27
2023-03-15T02:20:28.436Z,988.25
2023-03-15T02:21:28.422Z,988.20
2023-03-15T02:22:28.438Z,988.21
2023-03-15T02:23:28.410Z,988.10
2023-03-15T02:24:28.400Z,988.14
2023-03-15T02:25:28.394Z,988.17
2023-03-15T02:26:28.393Z,988.12
2023-03-15T02:27:28.450Z,988.20
2023-03-15T02:28:28.378Z,988.16
2023-03-15T02:29:28.367Z,988.11
2023-03-15T02:30:28.366Z,988.17
2023-03-15T02:31:28.419Z,988.20
2023-03-15T02:32:28.387Z,988.20
2023-03-15T02:33:28.341Z,988.18
2023-03-15T02:34:28.338Z,988.18
2023-03-15T02:35:28.331Z,988.23
2023-03-15T02:36:28.327Z,988.25
2023-03-15T02:37:28.346Z,988.22
2023-03-15T02:38:28.319Z,988.16
2023-03-15T02:39:28.315Z,988.16
2023-03-15T02:40:28.373Z,988.15
2023-03-15T02:41:28.298Z,988.20
2023-03-15T02:42:28.312Z,988.14
2023-03-15T02:43:28.284Z,988.13
2023-03-15T02:44:28.267Z,988.23
2023-03-15T02:45:28.269Z,988.21
2023-03-15T02:46:28.269Z,988.19
2023-03-15T02:47:28.278Z,988.28
2023-03-15T02:48:28.242Z,988.33
2023-03-15T02:49:28.243Z,988.34
2023-03-15T02:50:28.242Z,988.28
2023-03-15T02:51:28.233Z,988.40
2023-03-15T02:52:28.252Z,988.36
2023-03-15T02:53:28.219Z,988.40
2023-03-15T02:54:28.205Z,988.46
2023-03-15T02:55:28.215Z,988.41
2023-03-15T02:56:28.208Z,988.42
2023-03-15T02:57:28.209Z,988.42
2023-03-15T02:58:28.182Z,988.37
2023-03-15T02:59:28.177Z,988.37
2023-03-15T03:00:28.191Z,988.42
2023-03-15T03:01:28.279Z,988.45
2023-03-15T03:02:28.261Z,988.33
2023-03-15T03:03:28.152Z,988.34
2023-03-15T03:04:28.155Z,988.32
2023-03-15T03:05:28.145Z,988.39
2023-03-15T03:06:28.142Z,988.38
2023-03-15T03:07:28.153Z,988.33
2023-03-15T03:08:28.133Z,988.36
2023-03-15T03:09:28.117Z,988.40
2023-03-15T03:10:28.122Z,988.33
2023-03-15T03:11:28.337Z,988.40
2023-03-15T03:12:28.145Z,988.41
2023-03-15T03:13:28.096Z,988.40
2023-03-15T03:14:28.091Z,988.44
2023-03-15T03:15:28.089Z,988.44
2023-03-15T03:16:28.120Z,988.47
2023-03-15T03:17:28.088Z,988.47
2023-03-15T03:18:28.049Z,988.45
2023-03-15T03:19:28.066Z,988.53
2023-03-15T03:20:28.057Z,988.56
2023-03-15T03:21:28.042Z,988.55
2023-03-15T03:22:28.052Z,988.53
2023-03-15T03:23:28.031Z,988.51
2023-03-15T03:24:28.018Z,988.55
2023-03-15T03:25:28.022Z,988.55
2023-03-15T03:26:28.043Z,988.56
2023-03-15T03:27:28.039Z,988.51
2023-03-15T03:28:28.002Z,988.57
2023-03-15T03:29:28.040Z,988.52
2023-03-15T03:30:27.977Z,988.60
2023-03-15T03:31:27.973Z,988.58
2023-03-15T03:32:28.028Z,988.57
2023-03-15T03:33:27.965Z,988.67
2023-03-15T03:34:27.993Z,988.65
2023-03-15T03:35:27.960Z,988.67
2023-03-15T03:36:27.949Z,988.66
2023-03-15T03:37:27.943Z,988.66
2023-03-15T03:38:27.940Z,988.60
2023-03-15T03:39:27.929Z,988.64
2023-03-15T03:40:27.917Z,988.66
2023-03-15T03:41:27.909Z,988.62
2023-03-15T03:42:27.947Z,988.71
2023-03-15T03:43:27.909Z,988.65
2023-03-15T03:44:27.890Z,988.66
2023-03-15T03:45:27.887Z,988.66
2023-03-15T03:46:27.943Z,988.66
2023-03-15T03:47:27.876Z,988.74
2023-03-15T03:48:27.884Z,988.70
2023-03-15T03:49:27.864Z,988.64
2023-03-15T03:50:27.863Z,988.76
2023-03-15T03:51:27.846Z,988.77
2023-03-15T03:52:27.862Z,988.81
2023-03-15T03:53:27.829Z,988.75
2023-03-15T03:54:27.825Z,988.81
2023-03-15T03:55:27.822Z,988.84
2023-03-15T03:56:28.800Z,988.85
2023-03-15T03:57:27.816Z,988.87
2023-03-15T03:58:27.816Z,988.90
2023-03-15T03:59:27.809Z,988.93
2023-03-15T04:00:27.785Z,988.96
2023-03-15T04:01:27.778Z,988.93
2023-03-15T04:02:27.812Z,989.02
2023-03-15T04:03:27.809Z,989.08
2023-03-15T04:04:27.792Z,989.06
2023-03-15T04:05:27.762Z,989.08
2023-03-15T04:06:27.745Z,989.13
2023-03-15T04:07:27.744Z,989.21
2023-03-15T04:08:27.778Z,989.13
2023-03-15T04:09:27.736Z,989.22
2023-03-15T04:10:27.787Z,989.22
2023-03-15T04:11:27.773Z,989.16
2023-03-15T04:12:27.789Z,989.18
2023-03-15T04:13:27.767Z,989.27
2023-03-15T04:14:27.776Z,989.21
2023-03-15T04:15:27.755Z,989.22
2023-03-15T04:16:27.810Z,989.20
2023-03-15T04:17:27.792Z,989.22
2023-03-15T04:18:27.703Z,989.28
2023-03-15T04:19:27.666Z,989.32
2023-03-15T04:20:27.661Z,989.31
2023-03-15T04:21:27.756Z,989.29
2023-03-15T04:22:27.711Z,989.28
2023-03-15T04:23:27.736Z,989.30
2023-03-15T04:24:28.672Z,989.38
2023-03-15T04:25:27.678Z,989.34
2023-03-15T04:26:27.780Z,989.32
2023-03-15T04:27:28.318Z,989.35
2023-03-15T04:28:27.709Z,989.37
2023-03-15T04:29:27.656Z,989.39
2023-03-15T04:30:27.629Z,989.40
2023-03-15T04:31:27.808Z,989.38
2023-03-15T04:32:27.708Z,989.40
2023-03-15T04:33:27.619Z,989.37
2023-03-15T04:34:27.665Z,989.41
2023-03-15T04:35:27.675Z,989.41
2023-03-15T04:36:27.637Z,989.44
2023-03-15T04:37:27.573Z,989.43
2023-03-15T04:38:27.694Z,989.46
2023-03-15T04:39:27.580Z,989.44
2023-03-15T04:40:27.581Z,989.49
2023-03-15T04:41:27.589Z,989.40
2023-03-15T04:42:27.611Z,989.50
2023-03-15T04:43:27.578Z,989.45
2023-03-15T04:44:27.690Z,989.44
2023-03-15T04:45:27.542Z,989.47
2023-03-15T04:46:27.602Z,989.43
2023-03-15T04:47:27.538Z,989.43
2023-03-15T04:48:27.518Z,989.53
2023-03-15T04:49:27.515Z,989.48
2023-03-15T04:50:27.608Z,989.49
2023-03-15T04:51:27.518Z,989.50
2023-03-15T04:52:27.515Z,989.49
2023-03-15T04:53:27.506Z,989.53
2023-03-15T04:54:27.499Z,989.56
2023-03-15T04:55:27.516Z,989.52
2023-03-15T04:56:27.503Z,989.53
2023-03-15T04:57:27.485Z,989.59
2023-03-15T04:58:27.480Z,989.55
2023-03-15T04:59:27.457Z,989.64
2023-03-15T05:00:28.373Z,989.57
2023-03-15T05:01:27.451Z,989.58
2023-03-15T05:02:27.427Z,989.61
2023-03-15T05:03:27.430Z,989.57
2023-03-15T05:04:28.326Z,989.62
2023-03-15T05:05:27.477Z,989.60
2023-03-15T05:06:27.425Z,989.63
2023-03-15T05:07:27.373Z,989.62
2023-03-15T05:08:27.575Z,989.62
2023-03-15T05:09:27.440Z,989.67
2023-03-15T05:10:27.409Z,989.67
2023-03-15T05:11:27.366Z,989.62
2023-03-15T05:12:27.384Z,989.67
2023-03-15T05:13:27.418Z,989.71
2023-03-15T05:14:28.402Z,989.72
2023-03-15T05:15:27.416Z,989.68
2023-03-15T05:16:27.496Z,989.69
2023-03-15T05:17:27.353Z,989.71
2023-03-15T05:18:28.847Z,989.75
2023-03-15T05:19:27.309Z,989.73
2023-03-15T05:20:27.325Z,989.78
2023-03-15T05:21:27.307Z,989.75
2023-03-15T05:22:27.392Z,989.74
2023-03-15T05:23:27.313Z,989.76
2023-03-15T05:24:27.302Z,989.74
2023-03-15T05:25:27.276Z,989.79
2023-03-15T05:26:27.302Z,989.81
2023-03-15T05:27:27.300Z,989.87
2023-03-15T05:28:27.332Z,989.83
2023-03-15T05:29:27.296Z,989.83
2023-03-15T05:30:27.258Z,989.80
2023-03-15T05:31:27.267Z,989.81
2023-03-15T05:32:27.277Z,989.88
2023-03-15T05:33:27.333Z,989.86
2023-03-15T05:34:27.241Z,989.81
2023-03-15T05:35:27.297Z,989.78
2023-03-15T05:36:27.202Z,989.77
2023-03-15T05:37:27.204Z,989.78
2023-03-15T05:38:27.232Z,989.79
2023-03-15T05:39:27.291Z,989.85
2023-03-15T05:40:27.168Z,989.85
2023-03-15T05:41:27.160Z,989.89
2023-03-15T05:42:27.151Z,989.87
2023-03-15T05:43:27.159Z,989.91
2023-03-15T05:44:27.141Z,989.86
2023-03-15T05:45:27.138Z,989.86
2023-03-15T05:46:27.122Z,989.80
2023-03-15T05:47:27.130Z,989.88
2023-03-15T05:48:27.119Z,989.86
2023-03-15T05:49:28.107Z,989.83
2023-03-15T05:50:27.165Z,989.83
2023-03-15T05:51:27.099Z,989.86
2023-03-15T05:52:27.099Z,989.92
2023-03-15T05:53:27.117Z,989.82
2023-03-15T05:54:27.074Z,989.88
2023-03-15T05:55:27.073Z,989.84
2023-03-15T05:56:27.069Z,989.87
2023-03-15T05:57:27.066Z,989.92
2023-03-15T05:58:27.067Z,989.97
2023-03-15T05:59:27.038Z,989.90
2023-03-15T06:00:27.039Z,989.90
2023-03-15T06:01:27.030Z,989.89
2023-03-15T06:02:27.025Z,989.90
2023-03-15T06:03:27.216Z,989.96
2023-03-15T06:04:27.061Z,990.06
2023-03-15T06:05:27.038Z,989.99
2023-03-15T06:06:27.030Z,989.94
2023-03-15T06:07:26.990Z,990.05
2023-03-15T06:08:27.003Z,990.06
2023-03-15T06:09:26.979Z,990.07
2023-03-15T06:10:26.974Z,990.11
2023-03-15T06:11:26.969Z,990.15
2023-03-15T06:12:26.957Z,990.15
2023-03-15T06:13:26.979Z,990.19
2023-03-15T06:14:26.951Z,990.15
2023-03-15T06:15:26.948Z,990.21
2023-03-15T06:16:26.961Z,990.20
2023-03-15T06:17:26.927Z,990.26
2023-03-15T06:18:26.955Z,990.24
2023-03-15T06:19:26.915Z,990.29
2023-03-15T06:20:26.956Z,990.34
2023-03-15T06:21:26.903Z,990.29
2023-03-15T06:22:26.904Z,990.35
2023-03-15T06:23:26.906Z,990.40
2023-03-15T06:24:26.893Z,990.40
2023-03-15T06:25:26.890Z,990.44
2023-03-15T06:26:27.004Z,990.44
2023-03-15T06:27:26.877Z,990.43
2023-03-15T06:28:26.869Z,990.43
2023-03-15T06:29:26.856Z,990.47
2023-03-15T06:30:26.847Z,990.55
2023-03-15T06:31:26.839Z,990.48
2023-03-15T06:32:26.844Z,990.51
2023-03-15T06:33:26.851Z,990.55
2023-03-15T06:34:26.818Z,990.60
2023-03-15T06:35:26.819Z,990.62
2023-03-15T06:36:26.812Z,990.59
2023-03-15T06:37:35.145Z,990.60
2023-03-15T06:38:28.811Z,990.56
2023-03-15T06:39:26.782Z,990.57
2023-03-15T06:40:26.784Z,990.61
2023-03-15T06:41:26.852Z,990.67
2023-03-15T06:42:26.773Z,990.70
2023-03-15T06:43:26.786Z,990.66
2023-03-15T06:44:26.749Z,990.74
2023-03-15T06:45:26.754Z,990.77
2023-03-15T06:46:26.774Z,990.81
2023-03-15T06:47:26.737Z,990.82
2023-03-15T06:48:26.756Z,990.81
2023-03-15T06:49:26.724Z,990.90
2023-03-15T06:50:29.512Z,990.90
2023-03-15T06:51:27.703Z,990.89
2023-03-15T06:52:26.706Z,990.98
2023-03-15T06:53:26.732Z,990.98
2023-03-15T06:54:26.699Z,991.01
2023-03-15T06:55:26.697Z,991.03
2023-03-15T06:56:26.678Z,991.00
2023-03-15T06:57:26.684Z,991.04
2023-03-15T06:58:26.675Z,991.00
2023-03-15T06:59:26.678Z,991.09
2023-03-15T07:00:26.650Z,991.02
2023-03-15T07:01:26.692Z,991.03
2023-03-15T07:02:26.806Z,991.03
2023-03-15T07:03:26.640Z,991.10
2023-03-15T07:04:26.638Z,991.02
2023-03-15T07:05:26.643Z,991.01
2023-03-15T07:06:26.619Z,991.10
2023-03-15T07:07:26.626Z,991.05
2023-03-15T07:08:26.619Z,990.99
2023-03-15T07:09:26.636Z,991.01
2023-03-15T07:10:26.603Z,991.05
2023-03-15T07:11:26.586Z,991.16
2023-03-15T07:12:26.590Z,991.08
2023-03-15T07:13:26.588Z,991.12
2023-03-15T07:14:26.588Z,991.14
2023-03-15T07:15:26.578Z,991.21
2023-03-15T07:16:26.557Z,991.14
2023-03-15T07:17:26.547Z,991.11
2023-03-15T07:18:26.574Z,991.12
2023-03-15T07:19:26.561Z,991.16
2023-03-15T07:20:26.524Z,991.17
2023-03-15T07:21:26.527Z,991.13
2023-03-15T07:22:26.562Z,991.09
2023-03-15T07:23:26.516Z,991.15
2023-03-15T07:24:26.567Z,991.16
2023-03-15T07:25:26.518Z,991.23
2023-03-15T07:26:26.487Z,991.21
2023-03-15T07:27:26.489Z,991.24
2023-03-15T07:28:26.586Z,991.29
2023-03-15T07:29:26.499Z,991.30
2023-03-15T07:30:26.478Z,991.34
2023-03-15T07:31:26.484Z,991.41
2023-03-15T07:32:26.534Z,991.45
2023-03-15T07:33:26.511Z,991.41
2023-03-15T07:34:26.471Z,991.43
2023-03-15T07:35:26.491Z,991.50
2023-03-15T07:36:26.428Z,991.49
2023-03-15T07:37:26.430Z,991.47
2023-03-15T07:38:26.428Z,991.52
2023-03-15T07:39:26.495Z,991.46
2023-03-15T07:40:26.407Z,991.52
2023-03-15T07:41:26.382Z,991.59
2023-03-15T07:42:26.383Z,991.61
2023-03-15T07:43:26.381Z,991.60
2023-03-15T07:44:26.381Z,991.60
2023-03-15T07:45:26.354Z,991.61
2023-03-15T07:46:26.397Z,991.52
2023-03-15T07:47:26.347Z,991.63
2023-03-15T07:48:26.347Z,991.59
2023-03-15T07:49:26.352Z,991.59
2023-03-15T07:50:26.336Z,991.61
2023-03-15T07:51:26.338Z,991.61
2023-03-15T07:52:26.319Z,991.65
2023-03-15T07:53:26.304Z,991.69
2023-03-15T07:54:28.731Z,991.64
2023-03-15T07:55:26.290Z,991.63
2023-03-15T07:56:26.286Z,991.68
2023-03-15T07:57:28.793Z,991.67
2023-03-15T07:58:27.285Z,991.79
2023-03-15T07:59:26.282Z,991.69
2023-03-15T08:00:26.242Z,991.77
2023-03-15T08:01:27.257Z,991.74
2023-03-15T08:02:26.315Z,991.79
2023-03-15T08:03:26.274Z,991.77
2023-03-15T08:04:26.267Z,991.78
2023-03-15T08:05:28.947Z,991.79
2023-03-15T08:06:27.226Z,991.74
2023-03-15T08:07:26.216Z,991.79
2023-03-15T08:08:26.214Z,991.78
2023-03-15T08:09:26.216Z,991.81
2023-03-15T08:10:26.193Z,991.80
2023-03-15T08:11:26.192Z,991.82
2023-03-15T08:12:26.183Z,991.79
2023-03-15T08:13:26.185Z,991.84
2023-03-15T08:14:26.182Z,991.80
2023-03-15T08:15:26.183Z,991.84
2023-03-15T08:16:26.193Z,991.78
2023-03-15T08:17:26.148Z,991.85
2023-03-15T08:18:26.143Z,991.88
2023-03-15T08:19:26.159Z,991.89
2023-03-15T08:20:28.379Z,991.90
2023-03-15T08:21:26.141Z,991.95
2023-03-15T08:22:26.126Z,991.90
2023-03-15T08:23:26.117Z,991.91
2023-03-15T08:24:26.128Z,991.92
2023-03-15T08:25:26.127Z,991.96
2023-03-15T08:26:26.082Z,992.02
2023-03-15T08:27:26.065Z,992.00
2023-03-15T08:28:26.085Z,992.00
2023-03-15T08:29:26.082Z,992.02
2023-03-15T08:30:26.055Z,992.04
2023-03-15T08:31:26.101Z,992.03
2023-03-15T08:32:26.064Z,992.06
2023-03-15T08:33:26.034Z,992.08
2023-03-15T08:34:26.065Z,992.01
2023-03-15T08:35:26.082Z,992.04
2023-03-15T08:36:26.053Z,992.06
2023-03-15T08:37:26.019Z,992.07
2023-03-15T08:38:26.007Z,992.11
2023-03-15T08:39:26.076Z,992.18
2023-03-15T08:40:25.993Z,992.23
2023-03-15T08:41:25.983Z,992.28
2023-03-15T08:42:25.969Z,992.27
2023-03-15T08:43:25.965Z,992.35
2023-03-15T08:44:25.976Z,992.32
2023-03-15T08:45:25.957Z,992.34
2023-03-15T08:46:25.970Z,992.38
2023-03-15T08:47:25.939Z,992.39
2023-03-15T08:48:25.947Z,992.37
2023-03-15T08:49:25.943Z,992.43
2023-03-15T08:50:26.162Z,992.45
2023-03-15T08:51:25.905Z,992.52
2023-03-15T08:52:25.928Z,992.43
2023-03-15T08:53:25.915Z,992.40
2023-03-15T08:54:25.897Z,992.39
2023-03-15T08:55:25.875Z,992.38
2023-03-15T08:56:25.883Z,992.43
2023-03-15T08:57:25.908Z,992.40
2023-03-15T08:58:25.852Z,992.43
2023-03-15T08:59:31.946Z,992.49
2023-03-15T09:00:27.838Z,992.53
2023-03-15T09:01:25.827Z,992.54
2023-03-15T09:02:25.932Z,992.56
2023-03-15T09:03:25.824Z,992.55
2023-03-15T09:04:25.883Z,992.61
2023-03-15T09:05:25.804Z,992.60
2023-03-15T09:06:25.796Z,992.52
2023-03-15T09:07:25.788Z,992.57
2023-03-15T09:08:25.783Z,992.52
2023-03-15T09:09:25.788Z,992.54
2023-03-15T09:10:25.769Z,992.58
2023-03-15T09:11:25.763Z,992.58
2023-03-15T09:12:25.739Z,992.59
2023-03-15T09:13:25.738Z,992.62
2023-03-15T09:14:25.760Z,992.60
2023-03-15T09:15:26.719Z,992.60
2023-03-15T09:16:25.765Z,992.66
2023-03-15T09:17:25.710Z,992.68
2023-03-15T09:18:25.703Z,992.65
2023-03-15T09:19:25.722Z,992.70
2023-03-15T09:20:25.766Z,992.70
2023-03-15T09:21:25.681Z,992.69
2023-03-15T09:22:38.428Z,992.67
2023-03-15T09:23:27.686Z,992.69
2023-03-15T09:24:25.693Z,992.71
2023-03-15T09:25:25.662Z,992.66
2023-03-15T09:26:25.645Z,992.70
2023-03-15T09:27:25.656Z,992.70
2023-03-15T09:28:25.657Z,992.68
2023-03-15T09:29:25.647Z,992.73
2023-03-15T09:30:25.667Z,992.76
2023-03-15T09:31:25.677Z,992.76
2023-03-15T09:32:25.642Z,992.71
2023-03-15T09:33:25.601Z,992.73
2023-03-15T09:34:27.533Z,992.77
2023-03-15T09:35:25.692Z,992.75
2023-03-15T09:36:25.605Z,992.84
2023-03-15T09:37:25.587Z,992.73
2023-03-15T09:38:25.572Z,992.78
2023-03-15T09:39:25.596Z,992.75
2023-03-15T09:40:25.568Z,992.71
2023-03-15T09:41:25.565Z,992.73
2023-03-15T09:42:25.553Z,992.78
2023-03-15T09:43:25.548Z,992.82
2023-03-15T09:44:25.585Z,992.83
2023-03-15T09:45:25.529Z,992.82
2023-03-15T09:46:25.629Z,992.78
2023-03-15T09:47:25.521Z,992.79
2023-03-15T09:48:25.521Z,992.74
2023-03-15T09:49:25.510Z,992.81
2023-03-15T09:50:25.527Z,992.84
2023-03-15T09:51:25.501Z,992.90
2023-03-15T09:52:25.474Z,992.95
2023-03-15T09:53:25.479Z,992.87
2023-03-15T09:54:25.462Z,992.90
2023-03-15T09:55:25.490Z,992.87
2023-03-15T09:56:25.450Z,992.90
2023-03-15T09:57:25.440Z,992.92
2023-03-15T09:58:25.439Z,992.93
2023-03-15T09:59:25.444Z,992.95
2023-03-15T10:00:25.431Z,992.95
2023-03-15T10:01:25.451Z,992.99
2023-03-15T10:02:25.420Z,992.92
2023-03-15T10:03:25.521Z,993.01
2023-03-15T10:04:25.400Z,993.09
2023-03-15T10:05:25.399Z,993.03
2023-03-15T10:06:25.383Z,993.02
2023-03-15T10:07:25.370Z,993.01
2023-03-15T10:08:25.377Z,993.01
2023-03-15T10:09:25.360Z,992.97
2023-03-15T10:10:25.364Z,993.01
2023-03-15T10:11:25.343Z,993.01
2023-03-15T10:12:25.337Z,993.03
2023-03-15T10:13:25.329Z,993.02
2023-03-15T10:14:25.339Z,992.99
2023-03-15T10:15:25.335Z,993.00
2023-03-15T10:16:25.421Z,992.92
2023-03-15T10:17:25.298Z,992.97
2023-03-15T10:18:25.303Z,992.98
2023-03-15T10:19:25.293Z,992.97
2023-03-15T10:20:25.318Z,992.93
2023-03-15T10:21:25.282Z,993.07
2023-03-15T10:22:25.266Z,992.99
2023-03-15T10:23:25.585Z,993.08
2023-03-15T10:24:25.249Z,993.11
2023-03-15T10:25:25.281Z,993.11
2023-03-15T10:26:25.236Z,993.13
2023-03-15T10:27:25.235Z,993.08
2023-03-15T10:28:25.244Z,993.08
2023-03-15T10:29:25.207Z,993.06
2023-03-15T10:30:25.235Z,993.02
2023-03-15T10:31:36.578Z,993.10
2023-03-15T10:32:27.230Z,992.98
2023-03-15T10:33:25.188Z,992.98
2023-03-15T10:34:25.203Z,992.96
2023-03-15T10:35:25.233Z,992.99
2023-03-15T10:36:25.248Z,992.95
2023-03-15T10:37:25.162Z,992.98
2023-03-15T10:38:25.151Z,992.91
2023-03-15T10:39:25.153Z,992.92
2023-03-15T10:40:25.169Z,992.96
2023-03-15T10:41:29.007Z,992.89
2023-03-15T10:42:26.129Z,992.98
2023-03-15T10:43:25.129Z,993.02
2023-03-15T10:44:25.124Z,992.96
2023-03-15T10:45:25.199Z,992.99
2023-03-15T10:46:25.146Z,993.01
2023-03-15T10:47:25.183Z,992.95
2023-03-15T10:48:25.080Z,993.03
2023-03-15T10:49:25.077Z,992.97
2023-03-15T10:50:25.089Z,993.00
2023-03-15T10:51:25.063Z,993.04
2023-03-15T10:52:25.079Z,993.07
2023-03-15T10:53:25.061Z,993.19
2023-03-15T10:54:25.083Z,993.23
2023-03-15T10:55:25.051Z,993.23
2023-03-15T10:56:25.019Z,993.17
2023-03-15T10:57:25.065Z,993.17
2023-03-15T10:58:25.902Z,993.11
2023-03-15T10:59:26.014Z,993.14
2023-03-15T11:00:25.024Z,993.06
2023-03-15T11:01:25.028Z,993.08
2023-03-15T11:02:24.991Z,993.01
2023-03-15T11:03:24.978Z,993.03
2023-03-15T11:04:24.976Z,993.02
2023-03-15T11:05:24.987Z,993.04
2023-03-15T11:06:24.962Z,993.07
2023-03-15T11:07:24.955Z,993.04
2023-03-15T11:08:24.956Z,993.04
2023-03-15T11:09:24.919Z,993.02
2023-03-15T11:10:25.960Z,993.04
2023-03-15T11:11:24.921Z,993.05
2023-03-15T11:12:25.060Z,993.08
2023-03-15T11:13:24.905Z,993.07
2023-03-15T11:14:24.902Z,993.08
2023-03-15T11:15:24.909Z,993.06
2023-03-15T11:16:24.916Z,993.12
2023-03-15T11:17:24.881Z,993.15
2023-03-15T11:18:24.874Z,993.10
2023-03-15T11:19:24.882Z,993.10
2023-03-15T11:20:25.250Z,993.08
2023-03-15T11:21:24.846Z,993.09
2023-03-15T11:22:24.844Z,993.08
2023-03-15T11:23:24.835Z,993.13
2023-03-15T11:24:24.846Z,993.15
2023-03-15T11:25:25.171Z,993.24
2023-03-15T11:26:33.403Z,993.28
2023-03-15T11:27:26.812Z,993.26
2023-03-15T11:28:24.811Z,993.26
2023-03-15T11:29:24.807Z,993.32
2023-03-15T11:30:24.815Z,993.31
2023-03-15T11:31:24.824Z,993.20
2023-03-15T11:32:24.806Z,993.30
2023-03-15T11:33:24.769Z,993.33
2023-03-15T11:34:24.791Z,993.34
2023-03-15T11:35:24.780Z,993.39
2023-03-15T11:36:24.774Z,993.44
2023-03-15T11:37:24.727Z,993.43
2023-03-15T11:38:24.751Z,993.45
2023-03-15T11:39:24.731Z,993.45
2023-03-15T11:40:24.753Z,993.47
2023-03-15T11:41:24.723Z,993.53
2023-03-15T11:42:24.704Z,993.47
2023-03-15T11:43:24.697Z,993.44
2023-03-15T11:44:24.696Z,993.47
2023-03-15T11:45:24.745Z,993.43
2023-03-15T11:46:24.703Z,993.50
2023-03-15T11:47:24.675Z,993.55
2023-03-15T11:48:24.671Z,993.56
2023-03-15T11:49:24.655Z,993.49
2023-03-15T11:50:24.675Z,993.45
2023-03-15T11:51:24.652Z,993.51
2023-03-15T11:52:24.637Z,993.50
2023-03-15T11:53:24.624Z,993.49
2023-03-15T11:54:24.625Z,993.46
2023-03-15T11:55:24.637Z,993.51
2023-03-15T11:56:24.614Z,993.49
2023-03-15T11:57:24.614Z,993.51
2023-03-15T11:58:24.609Z,993.50
2023-03-15T11:59:24.593Z,993.54
2023-03-15T12:00:24.600Z,993.64
2023-03-15T12:01:24.579Z,993.61
2023-03-15T12:02:24.617Z,993.63
2023-03-15T12:03:24.605Z,993.62
2023-03-15T12:04:24.555Z,993.57
2023-03-15T12:05:24.594Z,993.63
2023-03-15T12:06:24.547Z,993.57
2023-03-15T12:07:24.652Z,993.62
2023-03-15T12:08:24.536Z,993.66
2023-03-15T12:09:25.168Z,993.68
2023-03-15T12:10:25.527Z,993.75
2023-03-15T12:11:24.528Z,993.64
2023-03-15T12:12:24.515Z,993.64
2023-03-15T12:13:24.499Z,993.67
2023-03-15T12:14:24.491Z,993.68
2023-03-15T12:15:24.557Z,993.68
2023-03-15T12:16:24.495Z,993.68
2023-03-15T12:17:24.481Z,993.69
2023-03-15T12:18:24.473Z,993.67
2023-03-15T12:19:24.461Z,993.61
2023-03-15T12:20:24.477Z,993.68
2023-03-15T12:21:24.445Z,993.66
2023-03-15T12:22:24.439Z,993.75
2023-03-15T12:23:24.429Z,993.70
2023-03-15T12:24:24.442Z,993.70
2023-03-15T12:25:24.458Z,993.77
2023-03-15T12:26:24.405Z,993.82
2023-03-15T12:27:24.425Z,993.73
2023-03-15T12:28:24.402Z,993.76